createdAt,value
2022-10-03T00:04:06.221Z,0.00
2022-10-03T00:09:28.538Z,0.00
2022-10-03T00:14:21.472Z,0.00
2022-10-03T00:19:21.384Z,0.00
2022-10-03T00:24:21.328Z,0.00
2022-10-03T00:29:21.242Z,0.00
2022-10-03T00:34:21.177Z,0.00
2022-10-03T00:39:21.113Z,0.00
2022-10-03T00:44:21.054Z,0.00
2022-10-03T00:49:20.997Z,0.00
2022-10-03T00:54:20.914Z,0.00
2022-10-03T00:59:20.867Z,0.00
2022-10-03T01:04:20.776Z,0.00
2022-10-03T01:09:20.715Z,0.00
2022-10-03T01:14:20.644Z,0.00
2022-10-03T01:19:20.611Z,0.00
2022-10-03T01:24:20.510Z,0.00
2022-10-03T01:29:20.438Z,0.00
2022-10-03T01:34:20.372Z,0.00
2022-10-03T01:39:20.337Z,0.00
2022-10-03T01:44:20.248Z,0.00
2022-10-03T01:49:20.169Z,0.00
2022-10-03T01:54:20.129Z,0.00
2022-10-03T01:59:20.107Z,0.00
2022-10-03T02:04:19.984Z,0.00
2022-10-03T02:09:19.919Z,0.00
2022-10-03T02:14:19.837Z,0.00
2022-10-03T02:19:19.782Z,0.00
2022-10-03T02:24:19.716Z,0.00
2022-10-03T02:29:19.636Z,0.00
2022-10-03T02:34:19.571Z,0.00
2022-10-03T02:39:19.530Z,0.00
2022-10-03T02:44:19.430Z,0.00
2022-10-03T02:49:19.375Z,0.00
2022-10-03T02:54:19.325Z,0.00
2022-10-03T02:59:19.244Z,0.00
2022-10-03T03:04:19.174Z,0.00
2022-10-03T03:09:19.143Z,0.00
2022-10-03T03:14:19.029Z,0.00
2022-10-03T03:19:18.964Z,0.00
2022-10-03T03:24:18.945Z,0.00
2022-10-03T03:29:18.853Z,0.00
2022-10-03T03:34:18.806Z,0.00
2022-10-03T03:39:18.718Z,0.00
2022-10-03T03:44:18.647Z,0.00
2022-10-03T03:49:18.570Z,0.00
2022-10-03T03:54:18.500Z,0.00
2022-10-03T03:59:18.438Z,0.00
2022-10-03T04:04:19.062Z,0.00
2022-10-03T04:09:18.321Z,0.00
2022-10-03T04:14:18.245Z,0.00
2022-10-03T04:19:33.700Z,0.00
2022-10-03T04:24:26.097Z,0.00
2022-10-03T04:29:26.144Z,0.00
2022-10-03T04:34:25.944Z,0.00
2022-10-03T04:39:25.903Z,0.00
2022-10-03T04:44:25.829Z,0.00
2022-10-03T04:49:25.790Z,0.00
2022-10-03T04:54:25.701Z,0.00
2022-10-03T04:59:25.647Z,0.00
2022-10-03T05:04:25.571Z,0.00
2022-10-03T05:09:25.523Z,0.00
2022-10-03T05:14:25.457Z,4.00
2022-10-03T05:19:25.381Z,4.00
2022-10-03T05:24:25.303Z,8.00
2022-10-03T05:29:25.261Z,20.00
2022-10-03T05:34:25.178Z,36.00
2022-10-03T05:39:25.083Z,52.00
2022-10-03T05:44:25.067Z,60.00
2022-10-03T05:49:24.978Z,80.00
2022-10-03T05:54:24.909Z,92.00
2022-10-03T05:59:24.826Z,112.00
2022-10-03T06:04:24.777Z,140.00
2022-10-03T06:09:24.673Z,180.00
2022-10-03T06:14:24.618Z,240.00
2022-10-03T06:19:24.580Z,244.00
2022-10-03T06:24:24.487Z,236.00
2022-10-03T06:29:24.417Z,244.00
2022-10-03T06:34:24.390Z,344.00
2022-10-03T06:39:24.359Z,360.00
2022-10-03T06:44:24.193Z,420.00
2022-10-03T06:49:24.146Z,624.00
2022-10-03T06:54:24.073Z,700.00
2022-10-03T06:59:24.013Z,820.00
2022-10-03T07:04:23.969Z,916.00
2022-10-03T07:09:23.901Z,848.00
2022-10-03T07:14:23.839Z,1036.00
2022-10-03T07:19:23.747Z,984.00
2022-10-03T07:24:23.678Z,1052.00
2022-10-03T07:29:23.618Z,732.00
2022-10-03T07:34:23.673Z,840.00
2022-10-03T07:39:23.454Z,1528.00
2022-10-03T07:44:23.415Z,2408.00
2022-10-03T07:49:23.355Z,2712.00
2022-10-03T07:54:23.275Z,2692.00
2022-10-03T07:59:23.207Z,2556.00
2022-10-03T08:04:23.147Z,2408.00
2022-10-03T08:09:23.111Z,1752.00
2022-10-03T08:14:23.007Z,1628.00
2022-10-03T08:19:22.917Z,1668.00
2022-10-03T08:24:22.859Z,2340.00
2022-10-03T08:29:22.835Z,2532.00
2022-10-03T08:34:22.745Z,3336.00
2022-10-03T08:39:22.686Z,3080.00
2022-10-03T08:44:25.036Z,3896.00
2022-10-03T08:49:23.512Z,10556.00
2022-10-03T08:54:22.440Z,3256.00
2022-10-03T08:59:22.397Z,3304.00
2022-10-03T09:04:22.352Z,2820.00
2022-10-03T09:09:22.265Z,3004.00
2022-10-03T09:14:22.173Z,5280.00
2022-10-03T09:19:22.141Z,4988.00
2022-10-03T09:24:22.052Z,4276.00
2022-10-03T09:29:21.963Z,4320.00
2022-10-03T09:34:21.914Z,5108.00
2022-10-03T09:39:21.932Z,10936.00
2022-10-03T09:44:21.965Z,5992.00
2022-10-03T09:49:21.731Z,10396.00
2022-10-03T09:54:21.639Z,6280.00
2022-10-03T09:59:21.579Z,35840.00
2022-10-03T10:04:37.356Z,8068.00
2022-10-03T10:09:22.594Z,8744.00
2022-10-03T10:14:21.543Z,5156.00
2022-10-03T10:19:21.368Z,4148.00
2022-10-03T10:24:21.426Z,2996.00
2022-10-03T10:29:21.398Z,17152.00
2022-10-03T10:34:22.746Z,3104.00
2022-10-03T10:39:21.185Z,2592.00
2022-10-03T10:44:21.000Z,2608.00
2022-10-03T10:49:20.950Z,2540.00
2022-10-03T10:54:20.817Z,2796.00
2022-10-03T10:59:20.773Z,3608.00
2022-10-03T11:04:20.711Z,3628.00
2022-10-03T11:09:20.651Z,3076.00
2022-10-03T11:14:20.580Z,2960.00
2022-10-03T11:19:20.482Z,2828.00
2022-10-03T11:24:20.453Z,2996.00
2022-10-03T11:29:21.230Z,2860.00
2022-10-03T11:34:20.275Z,2432.00
2022-10-03T11:39:20.256Z,2232.00
2022-10-03T11:44:20.164Z,2520.00
2022-10-03T11:49:20.092Z,3704.00
2022-10-03T11:54:31.198Z,5808.00
2022-10-03T11:59:24.810Z,22848.00
2022-10-03T12:04:20.880Z,17472.00
2022-10-03T12:09:19.860Z,17824.00
2022-10-03T12:14:19.771Z,6800.00
2022-10-03T12:19:19.701Z,5660.00
2022-10-03T12:24:19.628Z,4516.00
2022-10-03T12:29:19.633Z,4948.00
2022-10-03T12:34:19.482Z,3884.00
2022-10-03T12:39:19.495Z,3956.00
2022-10-03T12:44:19.342Z,4108.00
2022-10-03T12:49:19.313Z,5748.00
2022-10-03T12:54:20.818Z,4900.00
2022-10-03T12:59:19.155Z,5284.00
2022-10-03T13:04:19.101Z,4964.00
2022-10-03T13:09:19.010Z,4880.00
2022-10-03T13:14:18.958Z,4896.00
2022-10-03T13:19:18.911Z,4392.00
2022-10-03T13:24:18.846Z,4444.00
2022-10-03T13:29:18.732Z,3684.00
2022-10-03T13:34:18.665Z,3836.00
2022-10-03T13:39:18.602Z,3548.00
2022-10-03T13:44:18.537Z,3176.00
2022-10-03T13:49:18.479Z,2272.00
2022-10-03T13:54:18.393Z,2160.00
2022-10-03T13:59:18.349Z,2120.00
2022-10-03T14:04:18.299Z,2536.00
2022-10-03T14:09:18.181Z,2208.00
2022-10-03T14:14:18.133Z,2508.00
2022-10-03T14:19:18.112Z,2316.00
2022-10-03T14:24:17.985Z,1840.00
2022-10-03T14:29:17.971Z,1620.00
2022-10-03T14:34:17.868Z,1356.00
2022-10-03T14:39:17.807Z,1232.00
2022-10-03T14:44:17.734Z,1180.00
2022-10-03T14:49:47.170Z,1180.00
2022-10-03T14:54:18.608Z,984.00
2022-10-03T14:59:17.543Z,816.00
2022-10-03T15:04:17.450Z,732.00
2022-10-03T15:09:17.389Z,756.00
2022-10-03T15:14:17.318Z,824.00
2022-10-03T15:19:17.241Z,912.00
2022-10-03T15:24:17.184Z,896.00
2022-10-03T15:29:17.109Z,792.00
2022-10-03T15:34:17.073Z,736.00
2022-10-03T15:39:16.972Z,668.00
2022-10-03T15:44:16.921Z,652.00
2022-10-03T15:49:16.851Z,720.00
2022-10-03T15:54:16.793Z,724.00
2022-10-03T15:59:16.765Z,712.00
2022-10-03T16:04:16.639Z,620.00
2022-10-03T16:09:16.575Z,532.00
2022-10-03T16:14:16.501Z,512.00
2022-10-03T16:19:16.600Z,488.00
2022-10-03T16:24:16.383Z,424.00
2022-10-03T16:29:16.315Z,356.00
2022-10-03T16:34:16.216Z,284.00
2022-10-03T16:39:17.733Z,216.00
2022-10-03T16:44:16.116Z,180.00
2022-10-03T16:49:16.072Z,144.00
2022-10-03T16:54:15.991Z,104.00
2022-10-03T16:59:15.924Z,60.00
2022-10-03T17:04:15.907Z,36.00
2022-10-03T17:09:15.775Z,20.00
2022-10-03T17:14:16.014Z,12.00
2022-10-03T17:19:17.083Z,4.00
2022-10-03T17:24:15.549Z,0.00
2022-10-03T17:29:15.486Z,0.00
2022-10-03T17:34:15.443Z,0.00
2022-10-03T17:39:15.400Z,0.00
2022-10-03T17:44:15.326Z,0.00
2022-10-03T17:49:15.211Z,0.00
2022-10-03T17:54:15.180Z,0.00
2022-10-03T17:59:15.115Z,0.00
2022-10-03T18:04:15.013Z,0.00
2022-10-03T18:09:14.986Z,0.00
2022-10-03T18:14:14.942Z,0.00
2022-10-03T18:19:14.830Z,0.00
2022-10-03T18:24:14.724Z,0.00
2022-10-03T18:29:14.703Z,0.00
2022-10-03T18:34:14.614Z,0.00
2022-10-03T18:39:14.544Z,0.00
2022-10-03T18:44:14.478Z,0.00
2022-10-03T18:49:32.773Z,0.00
2022-10-03T18:54:15.381Z,0.00
2022-10-03T18:59:14.254Z,0.00
2022-10-03T19:04:14.265Z,0.00
2022-10-03T19:09:14.155Z,0.00
2022-10-03T19:14:14.078Z,0.00
2022-10-03T19:19:14.017Z,0.00
2022-10-03T19:24:13.932Z,0.00
2022-10-03T19:29:13.883Z,0.00
2022-10-03T19:34:13.817Z,0.00
2022-10-03T19:39:13.752Z,0.00
2022-10-03T19:44:13.690Z,0.00
2022-10-03T19:49:13.615Z,0.00
2022-10-03T19:54:13.555Z,0.00
2022-10-03T19:59:13.675Z,0.00
2022-10-03T20:04:15.737Z,0.00
2022-10-03T20:09:13.331Z,0.00
2022-10-03T20:14:13.339Z,0.00
2022-10-03T20:19:13.243Z,0.00
2022-10-03T20:24:13.126Z,0.00
2022-10-03T20:29:13.066Z,0.00
2022-10-03T20:34:13.522Z,0.00
2022-10-03T20:39:12.917Z,0.00
2022-10-03T20:44:12.880Z,0.00
2022-10-03T20:49:12.815Z,0.00
2022-10-03T20:54:12.750Z,0.00
2022-10-03T20:59:12.655Z,0.00
2022-10-03T21:04:12.689Z,0.00
2022-10-03T21:09:12.528Z,0.00
2022-10-03T21:14:12.466Z,0.00
2022-10-03T21:19:12.389Z,0.00
2022-10-03T21:24:12.326Z,0.00
2022-10-03T21:29:12.278Z,0.00
2022-10-03T21:34:12.204Z,0.00
2022-10-03T21:39:12.100Z,0.00
2022-10-03T21:44:12.054Z,0.00
2022-10-03T21:49:11.978Z,0.00
2022-10-03T21:54:11.957Z,0.00
2022-10-03T21:59:11.922Z,0.00
2022-10-03T22:04:11.782Z,0.00
2022-10-03T22:09:11.715Z,0.00
2022-10-03T22:14:11.654Z,0.00
2022-10-03T22:19:11.567Z,0.00
2022-10-03T22:24:11.534Z,0.00
2022-10-03T22:29:11.460Z,0.00
2022-10-03T22:34:11.376Z,0.00
2022-10-03T22:39:11.412Z,0.00
2022-10-03T22:44:11.235Z,0.00
2022-10-03T22:49:11.179Z,0.00
2022-10-03T22:54:11.117Z,0.00
2022-10-03T22:59:11.059Z,0.00
2022-10-03T23:04:11.137Z,0.00
2022-10-03T23:09:10.926Z,0.00
2022-10-03T23:14:10.838Z,0.00
2022-10-03T23:19:10.790Z,0.00
2022-10-03T23:24:10.685Z,0.00
2022-10-03T23:29:10.642Z,0.00
2022-10-03T23:34:10.587Z,0.00
2022-10-03T23:39:10.507Z,0.00
2022-10-03T23:44:10.433Z,0.00
2022-10-03T23:49:10.376Z,0.00
2022-10-03T23:54:10.519Z,0.00
2022-10-03T23:59:10.242Z,0.00
